createdAt,value
2022-11-09T00:01:28.428Z,62.18
2022-11-09T00:03:57.938Z,60.84
2022-11-09T00:06:26.956Z,60.86
2022-11-09T00:09:00.312Z,61.31
2022-11-09T00:11:31.057Z,60.92
2022-11-09T00:13:59.365Z,61.50
2022-11-09T00:16:27.702Z,61.80
2022-11-09T00:18:56.107Z,62.14
2022-11-09T00:21:26.167Z,61.78
2022-11-09T00:23:56.114Z,60.35
2022-11-09T00:26:25.122Z,60.74
2022-11-09T00:28:53.637Z,61.43
2022-11-09T00:31:24.222Z,61.32
2022-11-09T00:33:54.067Z,61.92
2022-11-09T00:36:23.512Z,61.32
2022-11-09T00:38:54.113Z,61.98
2022-11-09T00:41:24.272Z,61.99
2022-11-09T00:43:53.139Z,61.59
2022-11-09T00:46:22.467Z,61.52
2022-11-09T00:48:51.161Z,62.28
2022-11-09T00:51:19.675Z,63.32
2022-11-09T00:53:48.323Z,63.21
2022-11-09T00:56:17.793Z,62.93
2022-11-09T00:58:47.483Z,62.74
2022-11-09T01:01:18.065Z,61.95
2022-11-09T01:03:47.144Z,62.00
2022-11-09T01:06:17.560Z,62.03
2022-11-09T01:08:46.751Z,61.24
2022-11-09T01:11:15.634Z,61.40
2022-11-09T01:13:44.199Z,62.25
2022-11-09T01:16:15.425Z,61.70
2022-11-09T01:18:44.393Z,61.85
2022-11-09T01:21:15.367Z,62.09
2022-11-09T01:23:44.311Z,61.78
2022-11-09T01:26:14.582Z,61.81
2022-11-09T01:28:43.732Z,61.78
2022-11-09T01:31:15.771Z,61.78
2022-11-09T01:33:44.283Z,62.03
2022-11-09T01:36:14.572Z,61.80
2022-11-09T01:38:43.568Z,61.77
2022-11-09T01:41:17.075Z,61.29
2022-11-09T01:43:46.901Z,61.37
2022-11-09T01:46:23.847Z,61.27
2022-11-09T01:48:57.389Z,61.50
2022-11-09T01:51:28.732Z,61.14
2022-11-09T01:54:01.943Z,60.84
2022-11-09T01:56:31.983Z,60.56
2022-11-09T01:59:04.968Z,60.84
2022-11-09T02:01:36.273Z,60.80
2022-11-09T02:04:09.506Z,61.02
2022-11-09T02:06:38.164Z,60.52
2022-11-09T02:09:12.980Z,60.38
2022-11-09T02:11:41.492Z,61.09
2022-11-09T02:14:09.725Z,61.63
2022-11-09T02:16:39.578Z,61.52
2022-11-09T02:19:07.643Z,61.15
2022-11-09T02:21:37.046Z,61.61
2022-11-09T02:24:05.753Z,61.67
2022-11-09T02:26:41.911Z,61.99
2022-11-09T02:29:14.541Z,62.27
2022-11-09T02:31:48.441Z,62.35
2022-11-09T02:34:20.469Z,61.98
2022-11-09T02:36:50.097Z,61.01
2022-11-09T02:39:23.036Z,61.38
2022-11-09T02:41:57.789Z,61.15
2022-11-09T02:44:31.127Z,61.48
2022-11-09T02:46:59.173Z,61.60
2022-11-09T02:49:27.197Z,61.64
2022-11-09T02:51:56.514Z,60.92
2022-11-09T02:54:24.501Z,61.49
2022-11-09T02:56:52.551Z,61.85
2022-11-09T02:59:20.639Z,61.89
2022-11-09T03:01:48.700Z,62.20
2022-11-09T03:04:16.705Z,62.47
2022-11-09T03:06:44.728Z,61.79
2022-11-09T03:09:14.472Z,61.88
2022-11-09T03:11:44.121Z,61.89
2022-11-09T03:14:12.293Z,61.24
2022-11-09T03:16:41.097Z,61.36
2022-11-09T03:19:10.065Z,61.74
2022-11-09T03:21:38.207Z,61.97
2022-11-09T03:24:07.133Z,61.95
2022-11-09T03:26:36.464Z,62.09
2022-11-09T03:29:04.488Z,62.23
2022-11-09T03:31:32.516Z,62.65
2022-11-09T03:34:00.505Z,62.51
2022-11-09T03:36:28.474Z,62.46
2022-11-09T03:38:56.432Z,62.06
2022-11-09T03:41:24.442Z,61.29
2022-11-09T03:43:53.779Z,62.02
2022-11-09T03:46:21.777Z,61.38
2022-11-09T03:48:49.780Z,61.85
2022-11-09T03:51:17.853Z,61.07
2022-11-09T03:53:46.116Z,60.96
2022-11-09T03:56:14.181Z,61.33
2022-11-09T03:58:42.161Z,61.19
2022-11-09T04:01:11.797Z,62.00
2022-11-09T04:03:40.148Z,61.13
2022-11-09T04:06:08.346Z,62.13
2022-11-09T04:08:36.284Z,62.49
2022-11-09T04:11:04.303Z,63.24
2022-11-09T04:13:32.282Z,63.40
2022-11-09T04:16:00.314Z,63.53
2022-11-09T04:18:29.641Z,62.92
2022-11-09T04:20:59.791Z,63.29
2022-11-09T04:23:27.824Z,63.65
2022-11-09T04:25:55.814Z,64.38
2022-11-09T04:28:23.835Z,65.03
2022-11-09T04:30:51.852Z,65.65
2022-11-09T04:33:20.282Z,65.83
2022-11-09T04:35:49.785Z,65.42
2022-11-09T04:38:18.299Z,65.13
2022-11-09T04:40:46.248Z,64.96
2022-11-09T04:43:16.020Z,65.09
2022-11-09T04:45:44.355Z,64.81
2022-11-09T04:48:13.105Z,65.25
2022-11-09T04:50:41.120Z,65.89
2022-11-09T04:53:13.814Z,66.36
2022-11-09T04:55:42.481Z,67.65
2022-11-09T04:58:10.869Z,68.21
2022-11-09T05:00:39.316Z,68.24
2022-11-09T05:03:08.639Z,68.47
2022-11-09T05:05:44.068Z,69.26
2022-11-09T05:08:16.564Z,70.29
2022-11-09T05:10:44.777Z,70.72
2022-11-09T05:13:14.678Z,71.43
2022-11-09T05:15:42.854Z,72.22
2022-11-09T05:18:11.960Z,72.43
2022-11-09T05:20:39.984Z,73.14
2022-11-09T05:23:25.503Z,72.88
2022-11-09T05:25:54.875Z,73.36
2022-11-09T05:28:22.860Z,73.20
2022-11-09T05:30:50.857Z,72.74
2022-11-09T05:33:19.217Z,73.26
2022-11-09T05:35:47.506Z,74.16
2022-11-09T05:38:15.500Z,73.97
2022-11-09T05:40:43.452Z,74.31
2022-11-09T05:43:12.802Z,75.05
2022-11-09T05:45:42.606Z,75.49
2022-11-09T05:48:12.360Z,75.89
2022-11-09T05:50:41.189Z,76.41
2022-11-09T05:53:09.928Z,77.02
2022-11-09T05:55:38.177Z,77.39
2022-11-09T05:58:06.299Z,77.72
2022-11-09T06:00:36.278Z,78.12
2022-11-09T06:03:05.519Z,78.29
2022-11-09T06:05:34.307Z,77.25
2022-11-09T06:08:06.093Z,76.65
2022-11-09T06:10:34.712Z,76.96
2022-11-09T06:13:03.519Z,76.83
2022-11-09T06:15:31.803Z,77.46
2022-11-09T06:18:01.266Z,76.46
2022-11-09T06:20:29.887Z,75.92
2022-11-09T06:23:03.173Z,76.18
2022-11-09T06:25:33.617Z,75.71
2022-11-09T06:28:02.121Z,75.81
2022-11-09T06:30:30.883Z,75.53
2022-11-09T06:33:04.255Z,74.57
2022-11-09T06:35:32.283Z,75.15
2022-11-09T06:38:01.602Z,75.84
2022-11-09T06:40:30.312Z,75.75
2022-11-09T06:42:59.717Z,74.73
2022-11-09T06:45:29.965Z,75.13
2022-11-09T06:47:58.721Z,75.42
2022-11-09T06:50:31.580Z,75.42
2022-11-09T06:53:01.743Z,76.26
2022-11-09T06:55:31.495Z,76.88
2022-11-09T06:58:00.297Z,77.67
2022-11-09T07:00:29.234Z,78.08
2022-11-09T07:02:57.227Z,78.56
2022-11-09T07:05:27.523Z,79.04
2022-11-09T07:07:55.506Z,79.92
2022-11-09T07:10:23.546Z,80.30
2022-11-09T07:12:51.626Z,80.69
2022-11-09T07:15:19.838Z,81.39
2022-11-09T07:17:47.856Z,81.31
2022-11-09T07:20:16.665Z,81.54
2022-11-09T07:22:49.912Z,81.06
2022-11-09T07:25:18.847Z,80.94
2022-11-09T07:27:47.153Z,81.49
2022-11-09T07:30:15.893Z,82.77
2022-11-09T07:33:08.002Z,83.57
2022-11-09T07:35:32.414Z,84.31
2022-11-09T07:38:02.620Z,84.39
2022-11-09T07:40:31.638Z,84.19
2022-11-09T07:43:00.345Z,83.87
2022-11-09T07:45:29.055Z,84.33
2022-11-09T07:47:58.357Z,84.75
2022-11-09T07:50:27.376Z,85.79
2022-11-09T07:52:57.089Z,84.72
2022-11-09T07:55:28.201Z,84.69
2022-11-09T07:57:57.856Z,84.30
2022-11-09T08:00:26.615Z,83.58
2022-11-09T08:02:55.190Z,84.46
2022-11-09T08:05:24.073Z,84.98
2022-11-09T08:07:57.055Z,85.24
2022-11-09T08:10:28.798Z,84.60
2022-11-09T08:12:59.432Z,84.88
2022-11-09T08:15:28.705Z,84.85
2022-11-09T08:18:01.420Z,84.58
2022-11-09T08:20:29.988Z,84.94
2022-11-09T08:23:03.384Z,84.74
2022-11-09T08:25:34.508Z,83.80
2022-11-09T08:28:03.352Z,82.91
2022-11-09T08:30:32.517Z,83.33
2022-11-09T08:33:02.261Z,83.63
2022-11-09T08:35:31.063Z,83.51
2022-11-09T08:38:03.817Z,83.53
2022-11-09T08:40:35.148Z,83.25
2022-11-09T08:43:05.495Z,80.47
2022-11-09T08:45:36.094Z,81.06
2022-11-09T08:48:05.647Z,81.22
2022-11-09T08:50:36.292Z,80.78
2022-11-09T08:53:06.383Z,80.03
2022-11-09T08:55:36.103Z,78.93
2022-11-09T08:58:05.673Z,78.96
2022-11-09T09:00:33.776Z,79.05
2022-11-09T09:03:05.885Z,78.11
2022-11-09T09:05:35.018Z,77.36
2022-11-09T09:08:05.349Z,77.25
2022-11-09T09:10:36.471Z,76.58
2022-11-09T09:13:05.907Z,76.25
2022-11-09T09:15:34.035Z,76.72
2022-11-09T09:18:02.774Z,75.50
2022-11-09T09:20:31.399Z,75.68
2022-11-09T09:23:00.664Z,75.27
2022-11-09T09:25:29.409Z,74.49
2022-11-09T09:27:58.781Z,74.24
2022-11-09T09:30:26.914Z,74.01
2022-11-09T09:33:00.423Z,73.51
2022-11-09T09:35:28.943Z,73.19
2022-11-09T09:37:58.078Z,72.04
2022-11-09T09:40:34.459Z,71.69
2022-11-09T09:43:04.966Z,71.92
2022-11-09T09:45:37.097Z,71.48
2022-11-09T09:48:21.986Z,71.20
2022-11-09T09:50:54.695Z,68.39
2022-11-09T09:53:32.296Z,66.76
2022-11-09T09:56:10.624Z,66.49
2022-11-09T09:58:47.008Z,67.00
2022-11-09T10:01:19.922Z,68.11
2022-11-09T10:03:48.407Z,68.57
2022-11-09T10:06:41.857Z,68.43
2022-11-09T10:09:27.772Z,68.97
2022-11-09T10:12:09.218Z,69.90
2022-11-09T10:15:15.250Z,70.21
2022-11-09T10:18:01.055Z,69.05
2022-11-09T10:20:52.950Z,68.11
2022-11-09T10:23:45.091Z,64.95
2022-11-09T10:26:22.986Z,64.74
2022-11-09T10:31:49.315Z,62.91
2022-11-09T10:34:22.095Z,63.66
2022-11-09T10:37:00.729Z,64.36
2022-11-09T10:39:45.356Z,64.07
2022-11-09T10:42:13.457Z,63.61
2022-11-09T10:44:41.487Z,64.23
2022-11-09T10:47:14.557Z,64.04
2022-11-09T10:49:42.697Z,64.13
2022-11-09T10:52:44.204Z,64.27
2022-11-09T10:55:26.444Z,64.66
2022-11-09T10:58:00.354Z,63.39
2022-11-09T11:00:29.619Z,63.55
2022-11-09T11:02:59.006Z,63.50
2022-11-09T11:05:36.285Z,63.17
2022-11-09T11:08:37.152Z,63.84
2022-11-09T11:11:35.642Z,63.80
2022-11-09T11:14:23.095Z,64.38
2022-11-09T11:16:53.568Z,65.16
2022-11-09T11:19:37.602Z,65.99
2022-11-09T11:22:23.401Z,66.29
2022-11-09T11:24:59.856Z,65.62
2022-11-09T11:27:38.910Z,65.69
2022-11-09T11:30:13.919Z,65.11
2022-11-09T11:32:47.121Z,65.37
2022-11-09T11:35:32.192Z,65.63
2022-11-09T11:38:21.808Z,67.16
2022-11-09T11:41:10.282Z,67.36
2022-11-09T11:43:53.738Z,67.41
2022-11-09T11:46:46.536Z,67.16
2022-11-09T11:50:04.028Z,67.57
2022-11-09T11:52:52.487Z,66.82
2022-11-09T11:55:46.678Z,65.93
2022-11-09T11:58:37.426Z,66.39
2022-11-09T12:01:27.005Z,66.66
2022-11-09T12:04:14.641Z,65.26
2022-11-09T12:07:04.385Z,65.80
2022-11-09T12:09:52.770Z,64.94
2022-11-09T12:12:42.244Z,65.13
2022-11-09T12:15:47.560Z,65.98
2022-11-09T12:18:41.757Z,65.96
2022-11-09T12:21:18.084Z,66.06
2022-11-09T12:24:18.846Z,65.65
2022-11-09T12:30:13.865Z,65.13
2022-11-09T12:32:53.497Z,65.99
2022-11-09T12:35:33.103Z,64.84
2022-11-09T12:38:11.766Z,65.32
2022-11-09T12:40:51.959Z,64.88
2022-11-09T12:43:28.303Z,64.64
2022-11-09T12:45:59.009Z,64.15
2022-11-09T12:48:30.905Z,64.00
2022-11-09T12:51:01.829Z,64.39
2022-11-09T12:53:35.588Z,64.43
2022-11-09T12:56:12.380Z,64.05
2022-11-09T12:58:42.169Z,63.41
2022-11-09T13:01:34.601Z,63.38
2022-11-09T13:04:05.770Z,63.94
2022-11-09T13:06:36.786Z,64.14
2022-11-09T13:09:09.055Z,65.00
2022-11-09T13:11:40.982Z,65.11
2022-11-09T13:14:39.607Z,65.73
2022-11-09T13:18:03.322Z,66.62
2022-11-09T13:20:55.564Z,66.39
2022-11-09T13:27:00.073Z,66.66
2022-11-09T13:29:30.815Z,65.32
2022-11-09T13:32:34.186Z,65.41
2022-11-09T13:35:04.339Z,64.34
2022-11-09T13:37:58.374Z,64.42
2022-11-09T13:40:48.305Z,64.22
2022-11-09T13:43:25.161Z,64.49
2022-11-09T13:45:57.129Z,64.43
2022-11-09T13:48:41.779Z,64.74
2022-11-09T13:51:13.919Z,64.16
2022-11-09T13:53:58.380Z,64.43
2022-11-09T13:56:37.443Z,64.60
2022-11-09T13:59:14.925Z,65.46
2022-11-09T14:01:53.718Z,65.23
2022-11-09T14:04:27.570Z,65.87
2022-11-09T14:07:05.090Z,65.55
2022-11-09T14:09:49.107Z,65.40
2022-11-09T14:12:44.046Z,65.70
2022-11-09T14:15:31.308Z,66.03
2022-11-09T14:18:23.153Z,65.26
2022-11-09T14:21:16.053Z,65.55
2022-11-09T14:23:44.679Z,64.85
2022-11-09T14:26:20.423Z,63.93
2022-11-09T14:28:48.591Z,63.96
2022-11-09T14:31:26.267Z,63.45
2022-11-09T14:34:02.455Z,63.01
2022-11-09T14:36:35.555Z,63.52
2022-11-09T14:39:15.700Z,63.26
2022-11-09T14:41:46.025Z,63.73
2022-11-09T14:44:23.502Z,64.53
2022-11-09T14:46:54.982Z,65.03
2022-11-09T14:49:25.320Z,65.37
2022-11-09T14:51:54.925Z,66.17
2022-11-09T14:54:28.106Z,66.40
2022-11-09T14:56:56.851Z,65.62
2022-11-09T14:59:31.452Z,64.10
2022-11-09T15:02:03.976Z,64.92
2022-11-09T15:04:51.471Z,65.12
2022-11-09T15:07:25.108Z,64.97
2022-11-09T15:09:58.461Z,64.38
2022-11-09T15:12:29.372Z,64.37
2022-11-09T15:15:02.319Z,65.18
2022-11-09T15:17:33.533Z,64.51
2022-11-09T15:20:24.939Z,64.48
2022-11-09T15:22:57.074Z,65.08
2022-11-09T15:25:30.292Z,64.96
2022-11-09T15:28:22.056Z,65.57
2022-11-09T15:31:13.337Z,65.07
2022-11-09T15:33:49.833Z,64.79
2022-11-09T15:36:33.974Z,65.75
2022-11-09T15:39:17.413Z,66.68
2022-11-09T15:41:45.527Z,66.76
2022-11-09T15:44:15.344Z,67.21
2022-11-09T15:46:50.009Z,67.81
2022-11-09T15:49:23.489Z,68.11
2022-11-09T15:51:53.487Z,68.05
2022-11-09T15:54:24.728Z,68.66
2022-11-09T15:56:53.173Z,68.85
2022-11-09T15:59:24.532Z,69.37
2022-11-09T16:01:53.193Z,69.29
2022-11-09T16:04:21.521Z,69.17
2022-11-09T16:06:49.667Z,69.36
2022-11-09T16:09:17.813Z,69.37
2022-11-09T16:11:50.348Z,69.64
2022-11-09T16:14:20.104Z,69.91
2022-11-09T16:16:48.319Z,69.75
2022-11-09T16:19:16.587Z,69.65
2022-11-09T16:21:44.718Z,70.29
2022-11-09T16:24:12.832Z,69.81
2022-11-09T16:26:40.935Z,70.14
2022-11-09T16:29:10.422Z,70.75
2022-11-09T16:31:51.273Z,71.04
2022-11-09T16:34:19.866Z,71.20
2022-11-09T16:36:51.074Z,71.62
2022-11-09T16:39:22.362Z,72.09
2022-11-09T16:41:51.950Z,70.11
2022-11-09T16:47:05.380Z,70.00
2022-11-09T16:49:33.810Z,70.33
2022-11-09T16:52:01.961Z,70.70
2022-11-09T16:54:30.131Z,71.37
2022-11-09T16:56:58.554Z,71.64
2022-11-09T16:59:26.754Z,71.83
2022-11-09T17:01:57.211Z,71.58
2022-11-09T17:04:27.583Z,71.21
2022-11-09T17:06:55.770Z,71.79
2022-11-09T17:09:23.975Z,71.91
2022-11-09T17:11:52.296Z,71.46
2022-11-09T17:14:20.418Z,71.78
2022-11-09T17:16:49.120Z,72.59
2022-11-09T17:19:17.198Z,72.01
2022-11-09T17:21:46.748Z,72.36
2022-11-09T17:24:15.113Z,72.81
2022-11-09T17:26:43.270Z,72.40
2022-11-09T17:29:12.614Z,72.76
2022-11-09T17:31:40.766Z,72.80
2022-11-09T17:34:08.879Z,71.77
2022-11-09T17:37:02.423Z,72.19
2022-11-09T17:39:26.921Z,72.59
2022-11-09T17:41:55.051Z,72.83
2022-11-09T17:44:23.159Z,72.34
2022-11-09T17:46:51.316Z,73.20
2022-11-09T17:49:19.508Z,73.66
2022-11-09T17:51:47.704Z,73.71
2022-11-09T17:54:15.978Z,73.87
2022-11-09T17:56:45.635Z,73.89
2022-11-09T17:59:13.753Z,73.87
2022-11-09T18:01:42.217Z,74.10
2022-11-09T18:04:12.126Z,73.76
2022-11-09T18:06:40.373Z,72.65
2022-11-09T18:09:39.550Z,72.83
2022-11-09T18:11:58.161Z,72.71
2022-11-09T18:14:26.256Z,72.18
2022-11-09T18:16:54.415Z,72.20
2022-11-09T18:19:22.578Z,72.78
2022-11-09T18:21:50.721Z,73.22
2022-11-09T18:24:19.042Z,72.51
2022-11-09T18:26:47.112Z,72.91
2022-11-09T18:29:16.637Z,72.78
2022-11-09T18:31:44.926Z,73.12
2022-11-09T18:34:13.249Z,72.68
2022-11-09T18:36:41.617Z,73.45
2022-11-09T18:39:10.147Z,73.62
2022-11-09T18:41:38.297Z,73.59
2022-11-09T18:44:06.489Z,73.62
2022-11-09T18:46:36.001Z,72.58
2022-11-09T18:49:08.937Z,72.55
2022-11-09T18:51:39.810Z,73.26
2022-11-09T18:54:07.914Z,73.74
2022-11-09T18:56:36.080Z,73.75
2022-11-09T18:59:04.550Z,74.13
2022-11-09T19:01:34.890Z,74.43
2022-11-09T19:04:03.031Z,74.61
2022-11-09T19:06:31.250Z,74.30
2022-11-09T19:09:16.942Z,73.53
2022-11-09T19:11:45.037Z,74.04
2022-11-09T19:14:13.165Z,73.62
2022-11-09T19:16:42.734Z,73.06
2022-11-09T19:19:15.151Z,73.17
2022-11-09T19:21:47.889Z,73.58
2022-11-09T19:24:18.912Z,73.44
2022-11-09T19:26:47.395Z,73.91
2022-11-09T19:29:17.341Z,73.62
2022-11-09T19:31:48.533Z,73.61
2022-11-09T19:34:19.504Z,73.64
2022-11-09T19:36:48.290Z,73.42
2022-11-09T19:39:17.631Z,73.94
2022-11-09T19:41:45.854Z,72.90
2022-11-09T19:44:14.909Z,72.12
2022-11-09T19:46:43.168Z,72.95
2022-11-09T19:49:12.655Z,72.68
2022-11-09T19:51:41.483Z,73.29
2022-11-09T19:54:14.420Z,73.31
2022-11-09T19:56:42.574Z,73.55
2022-11-09T19:59:15.658Z,73.51
2022-11-09T20:01:44.420Z,73.83
2022-11-09T20:04:13.976Z,73.68
2022-11-09T20:06:42.365Z,73.75
2022-11-09T20:09:10.554Z,73.56
2022-11-09T20:11:56.079Z,73.87
2022-11-09T20:14:24.322Z,73.96
2022-11-09T20:16:53.341Z,74.47
2022-11-09T20:19:23.738Z,74.82
2022-11-09T20:21:51.842Z,74.45
2022-11-09T20:24:19.943Z,74.64
2022-11-09T20:26:48.026Z,74.51
2022-11-09T20:29:16.197Z,73.68
2022-11-09T20:31:44.376Z,74.56
2022-11-09T20:34:12.622Z,75.15
2022-11-09T20:36:42.085Z,74.89
2022-11-09T20:39:10.664Z,75.23
2022-11-09T20:41:39.141Z,75.51
2022-11-09T20:44:07.289Z,75.97
2022-11-09T20:46:36.704Z,76.07
2022-11-09T20:49:06.196Z,75.26
2022-11-09T20:51:34.396Z,75.95
2022-11-09T20:54:07.500Z,74.95
2022-11-09T20:56:38.071Z,74.98
2022-11-09T20:59:06.892Z,75.55
2022-11-09T21:01:35.121Z,75.47
2022-11-09T21:04:03.451Z,76.03
2022-11-09T21:06:32.302Z,76.37
2022-11-09T21:09:01.374Z,76.63
2022-11-09T21:11:36.950Z,76.70
2022-11-09T21:14:05.208Z,77.03
2022-11-09T21:16:33.349Z,77.04
2022-11-09T21:19:01.460Z,76.95
2022-11-09T21:21:35.040Z,76.86
2022-11-09T21:24:22.882Z,77.07
2022-11-09T21:27:09.829Z,77.04
2022-11-09T21:29:53.229Z,77.38
2022-11-09T21:32:23.301Z,77.28
2022-11-09T21:34:53.024Z,77.18
2022-11-09T21:37:21.083Z,77.28
2022-11-09T21:39:49.208Z,77.58
2022-11-09T21:42:18.803Z,77.52
2022-11-09T21:44:46.935Z,77.91
2022-11-09T21:47:15.223Z,78.33
2022-11-09T21:49:43.363Z,78.47
2022-11-09T21:52:11.458Z,78.50
2022-11-09T21:54:40.540Z,78.64
2022-11-09T21:57:09.465Z,78.89
2022-11-09T21:59:38.930Z,78.69
2022-11-09T22:02:07.406Z,78.09
2022-11-09T22:04:35.653Z,77.74
2022-11-09T22:07:03.801Z,77.37
2022-11-09T22:09:50.557Z,77.26
2022-11-09T22:12:37.543Z,77.66
2022-11-09T22:15:26.755Z,77.95
2022-11-09T22:17:55.349Z,77.77
2022-11-09T22:20:42.054Z,78.10
2022-11-09T22:23:10.450Z,78.53
2022-11-09T22:25:39.915Z,78.06
2022-11-09T22:28:09.843Z,75.56
2022-11-09T22:30:39.337Z,75.31
2022-11-09T22:33:07.446Z,73.87
2022-11-09T22:35:35.602Z,74.20
2022-11-09T22:38:04.083Z,74.69
2022-11-09T22:40:32.180Z,74.68
2022-11-09T22:43:00.283Z,74.94
2022-11-09T22:45:28.410Z,74.47
2022-11-09T22:47:59.944Z,74.98
2022-11-09T22:50:28.000Z,75.31
2022-11-09T22:53:03.297Z,75.97
2022-11-09T22:55:32.180Z,75.75
2022-11-09T22:58:00.323Z,75.78
2022-11-09T23:00:28.509Z,75.42
2022-11-09T23:02:59.408Z,75.18
2022-11-09T23:05:27.484Z,75.19
2022-11-09T23:07:57.372Z,75.19
2022-11-09T23:10:25.471Z,74.38
2022-11-09T23:12:53.618Z,75.07
2022-11-09T23:15:21.706Z,75.66
2022-11-09T23:18:07.381Z,75.95
2022-11-09T23:20:36.836Z,75.86
2022-11-09T23:23:05.185Z,76.07
2022-11-09T23:25:51.325Z,75.71
2022-11-09T23:28:19.937Z,75.37
2022-11-09T23:30:48.053Z,75.62
2022-11-09T23:33:16.478Z,75.27
2022-11-09T23:35:46.002Z,75.90
2022-11-09T23:38:14.131Z,75.70
2022-11-09T23:40:42.254Z,75.27
2022-11-09T23:43:12.828Z,75.26
2022-11-09T23:45:42.073Z,75.07
2022-11-09T23:48:16.379Z,75.82
2022-11-09T23:50:49.070Z,76.22
2022-11-09T23:53:17.181Z,76.74
2022-11-09T23:55:45.372Z,77.25
2022-11-09T23:58:14.101Z,77.09
